createdAt,value
2024-01-03T00:02:27.961Z,80.77
2024-01-03T00:05:07.490Z,80.72
2024-01-03T00:07:47.155Z,80.24
2024-01-03T00:10:48.092Z,79.91
2024-01-03T00:14:12.147Z,81.06
2024-01-03T00:16:51.512Z,81.77
2024-01-03T00:19:36.244Z,82.34
2024-01-03T00:22:23.026Z,82.17
2024-01-03T00:25:06.339Z,81.15
2024-01-03T00:27:47.398Z,81.35
2024-01-03T00:30:26.755Z,78.92
2024-01-03T00:33:06.325Z,77.85
2024-01-03T00:35:53.847Z,78.01
2024-01-03T00:38:33.439Z,76.22
2024-01-03T00:41:13.618Z,75.05
2024-01-03T00:43:53.326Z,76.82
2024-01-03T00:46:32.825Z,69.08
2024-01-03T00:49:15.781Z,72.36
2024-01-03T00:52:02.623Z,71.69
2024-01-03T00:54:44.253Z,72.19
2024-01-03T00:57:25.499Z,73.56
2024-01-03T01:00:05.123Z,70.38
2024-01-03T01:02:44.596Z,74.13
2024-01-03T01:05:24.267Z,73.70
2024-01-03T01:08:09.691Z,71.70
2024-01-03T01:10:49.270Z,71.33
2024-01-03T01:13:28.612Z,72.30
2024-01-03T01:16:07.930Z,69.91
2024-01-03T01:18:47.408Z,69.66
2024-01-03T01:21:26.830Z,71.12
2024-01-03T01:24:11.804Z,71.59
2024-01-03T01:26:51.114Z,71.89
2024-01-03T01:29:30.470Z,67.24
2024-01-03T01:32:11.100Z,67.74
2024-01-03T01:34:52.406Z,71.26
2024-01-03T01:37:31.708Z,72.14
2024-01-03T01:40:17.691Z,72.07
2024-01-03T01:42:56.987Z,70.07
2024-01-03T01:45:36.291Z,71.09
2024-01-03T01:48:16.570Z,71.77
2024-01-03T01:50:56.244Z,71.88
2024-01-03T01:53:36.540Z,76.29
2024-01-03T01:56:22.550Z,77.32
2024-01-03T01:59:02.021Z,76.62
2024-01-03T02:01:41.968Z,77.32
2024-01-03T02:04:22.773Z,79.74
2024-01-03T02:07:02.569Z,78.62
2024-01-03T02:09:42.022Z,79.13
2024-01-03T02:12:34.391Z,75.08
2024-01-03T02:15:14.632Z,75.88
2024-01-03T02:17:55.009Z,72.79
2024-01-03T02:20:40.142Z,73.71
2024-01-03T02:23:24.677Z,74.96
2024-01-03T02:26:10.509Z,74.65
2024-01-03T02:28:57.300Z,75.93
2024-01-03T02:31:36.650Z,75.08
2024-01-03T02:34:15.999Z,72.51
2024-01-03T02:36:56.302Z,69.06
2024-01-03T02:39:40.972Z,71.45
2024-01-03T02:42:20.371Z,69.79
2024-01-03T02:44:59.747Z,70.54
2024-01-03T02:47:39.157Z,71.13
2024-01-03T02:50:18.660Z,71.49
2024-01-03T02:52:57.969Z,71.55
2024-01-03T02:55:42.333Z,73.46
2024-01-03T02:58:21.667Z,72.64
2024-01-03T03:01:01.032Z,73.47
2024-01-03T03:03:40.494Z,73.90
2024-01-03T03:06:19.986Z,74.39
2024-01-03T03:09:09.350Z,75.02
2024-01-03T03:12:00.608Z,75.18
2024-01-03T03:14:40.044Z,75.94
2024-01-03T03:17:19.501Z,75.39
2024-01-03T03:19:58.814Z,72.90
2024-01-03T03:22:38.112Z,74.12
2024-01-03T03:25:17.414Z,74.57
2024-01-03T03:28:01.812Z,76.05
2024-01-03T03:30:41.133Z,79.64
2024-01-03T03:33:20.659Z,81.15
2024-01-03T03:36:00.049Z,75.69
2024-01-03T03:38:39.386Z,81.11
2024-01-03T03:41:22.226Z,84.83
2024-01-03T03:44:07.281Z,83.98
2024-01-03T03:46:46.576Z,81.62
2024-01-03T03:49:25.952Z,79.14
2024-01-03T03:52:05.246Z,81.57
2024-01-03T03:54:44.512Z,78.94
2024-01-03T03:57:23.865Z,79.64
2024-01-03T04:00:11.491Z,79.23
2024-01-03T04:02:51.049Z,80.20
2024-01-03T04:05:30.538Z,79.42
2024-01-03T04:08:10.131Z,78.07
2024-01-03T04:10:50.072Z,77.79
2024-01-03T04:13:29.377Z,76.78
2024-01-03T04:16:14.583Z,76.24
2024-01-03T04:18:54.341Z,76.27
2024-01-03T04:21:33.845Z,77.18
2024-01-03T04:24:13.465Z,76.53
2024-01-03T04:26:52.845Z,76.95
2024-01-03T04:29:32.291Z,77.48
2024-01-03T04:32:17.170Z,77.83
2024-01-03T04:34:56.498Z,77.66
2024-01-03T04:37:36.520Z,78.18
2024-01-03T04:40:17.335Z,78.63
2024-01-03T04:42:56.691Z,77.88
2024-01-03T04:45:35.983Z,78.06
2024-01-03T04:48:20.658Z,77.49
2024-01-03T04:51:00.503Z,77.81
2024-01-03T04:53:39.988Z,77.87
2024-01-03T04:56:19.519Z,78.73
2024-01-03T04:58:58.986Z,78.89
2024-01-03T05:01:38.406Z,79.04
2024-01-03T05:04:22.798Z,78.74
2024-01-03T05:07:02.351Z,79.40
2024-01-03T05:09:41.820Z,77.99
2024-01-03T05:12:21.219Z,77.16
2024-01-03T05:15:00.846Z,77.67
2024-01-03T05:17:40.887Z,74.69
2024-01-03T05:20:25.648Z,74.28
2024-01-03T05:23:04.941Z,75.84
2024-01-03T05:25:44.387Z,76.57
2024-01-03T05:28:23.736Z,76.92
2024-01-03T05:31:03.324Z,75.90
2024-01-03T05:33:42.899Z,75.18
2024-01-03T05:36:27.266Z,76.66
2024-01-03T05:39:06.614Z,76.81
2024-01-03T05:41:45.928Z,77.17
2024-01-03T05:44:25.334Z,77.07
2024-01-03T05:47:05.368Z,76.69
2024-01-03T05:49:44.875Z,76.07
2024-01-03T05:52:29.482Z,75.19
2024-01-03T05:55:08.990Z,75.44
2024-01-03T05:57:48.271Z,75.54
2024-01-03T06:00:27.828Z,75.80
2024-01-03T06:03:07.376Z,75.31
2024-01-03T06:05:46.779Z,75.26
2024-01-03T06:08:31.188Z,74.87
2024-01-03T06:11:10.605Z,74.33
2024-01-03T06:13:52.123Z,74.81
2024-01-03T06:16:31.460Z,74.58
2024-01-03T06:19:11.031Z,74.10
2024-01-03T06:21:50.472Z,74.67
2024-01-03T06:24:34.898Z,74.80
2024-01-03T06:27:14.215Z,74.48
2024-01-03T06:29:53.728Z,74.54
2024-01-03T06:32:33.161Z,74.64
2024-01-03T06:35:15.702Z,73.63
2024-01-03T06:37:55.236Z,74.38
2024-01-03T06:40:39.831Z,74.53
2024-01-03T06:43:19.138Z,74.73
2024-01-03T06:45:58.423Z,74.22
2024-01-03T06:48:37.865Z,73.93
2024-01-03T06:51:17.353Z,73.75
2024-01-03T06:53:56.930Z,73.96
2024-01-03T06:56:41.339Z,73.82
2024-01-03T06:59:20.648Z,72.61
2024-01-03T07:02:00.134Z,72.60
2024-01-03T07:04:39.444Z,73.04
2024-01-03T07:07:19.499Z,73.06
2024-01-03T07:09:59.159Z,72.76
2024-01-03T07:12:43.690Z,72.70
2024-01-03T07:15:23.042Z,71.94
2024-01-03T07:18:03.715Z,71.39
2024-01-03T07:20:43.051Z,71.45
2024-01-03T07:23:22.416Z,71.32
2024-01-03T07:26:01.764Z,65.88
2024-01-03T07:28:46.115Z,67.51
2024-01-03T07:31:25.399Z,68.23
2024-01-03T07:34:04.867Z,69.09
2024-01-03T07:36:44.231Z,69.41
2024-01-03T07:39:23.671Z,69.46
2024-01-03T07:42:03.066Z,69.80
2024-01-03T07:44:48.723Z,69.99
2024-01-03T07:47:28.169Z,70.52
2024-01-03T07:50:07.880Z,70.35
2024-01-03T07:52:47.249Z,70.63
2024-01-03T07:55:26.524Z,71.06
2024-01-03T07:58:06.435Z,71.41
2024-01-03T08:00:51.001Z,70.77
2024-01-03T08:03:30.398Z,70.90
2024-01-03T08:06:09.908Z,70.71
2024-01-03T08:08:49.273Z,70.80
2024-01-03T08:11:28.677Z,71.44
2024-01-03T08:14:08.225Z,71.77
2024-01-03T08:16:52.556Z,72.19
2024-01-03T08:19:32.206Z,72.56
2024-01-03T08:22:12.045Z,73.07
2024-01-03T08:24:51.570Z,72.95
2024-01-03T08:27:30.889Z,66.48
2024-01-03T08:30:10.652Z,68.34
2024-01-03T08:32:58.218Z,70.69
2024-01-03T08:35:37.937Z,71.75
2024-01-03T08:38:17.316Z,70.66
2024-01-03T08:40:56.598Z,65.75
2024-01-03T08:43:35.982Z,69.02
2024-01-03T08:46:15.532Z,69.74
2024-01-03T08:49:00.151Z,71.06
2024-01-03T08:51:39.722Z,69.53
2024-01-03T08:54:19.117Z,70.96
2024-01-03T08:56:58.436Z,72.23
2024-01-03T08:59:37.852Z,72.42
2024-01-03T09:02:17.578Z,72.44
2024-01-03T09:05:02.021Z,72.74
2024-01-03T09:07:41.308Z,73.28
2024-01-03T09:10:20.700Z,73.75
2024-01-03T09:13:00.058Z,74.53
2024-01-03T09:15:39.376Z,77.46
2024-01-03T09:18:18.802Z,76.32
2024-01-03T09:21:03.457Z,76.90
2024-01-03T09:23:42.944Z,77.10
2024-01-03T09:26:22.345Z,77.91
2024-01-03T09:29:01.841Z,79.04
2024-01-03T09:31:41.168Z,79.49
2024-01-03T09:34:20.820Z,78.23
2024-01-03T09:37:07.602Z,78.97
2024-01-03T09:39:47.925Z,77.87
2024-01-03T09:42:27.534Z,78.42
2024-01-03T09:45:08.293Z,78.91
2024-01-03T09:47:48.235Z,80.09
2024-01-03T09:50:28.452Z,81.58
2024-01-03T09:53:14.917Z,83.33
2024-01-03T09:55:54.351Z,83.20
2024-01-03T09:58:33.668Z,83.89
2024-01-03T10:01:13.566Z,84.54
2024-01-03T10:03:53.012Z,85.31
2024-01-03T10:06:33.384Z,74.09
2024-01-03T10:09:18.602Z,68.17
2024-01-03T10:11:58.674Z,69.29
2024-01-03T10:14:38.043Z,75.44
2024-01-03T10:17:18.627Z,79.50
2024-01-03T10:19:57.985Z,78.55
2024-01-03T10:22:37.519Z,75.99
2024-01-03T10:25:27.146Z,74.01
2024-01-03T10:28:10.544Z,76.63
2024-01-03T10:30:51.507Z,76.97
2024-01-03T10:33:31.720Z,75.56
2024-01-03T10:36:18.298Z,74.02
2024-01-03T10:38:59.108Z,73.43
2024-01-03T10:41:46.947Z,72.88
2024-01-03T10:44:27.742Z,70.75
2024-01-03T10:47:07.181Z,69.99
2024-01-03T10:49:46.610Z,70.19
2024-01-03T10:52:33.547Z,68.92
2024-01-03T10:55:16.696Z,68.84
2024-01-03T10:58:05.728Z,68.28
2024-01-03T11:00:59.835Z,66.51
2024-01-03T11:03:48.295Z,58.10
2024-01-03T11:06:35.030Z,58.63
2024-01-03T11:09:19.232Z,61.33
2024-01-03T11:12:15.549Z,60.11
2024-01-03T11:15:00.077Z,66.02
2024-01-03T11:17:42.759Z,69.14
2024-01-03T11:20:22.405Z,69.29
2024-01-03T11:23:07.348Z,67.53
2024-01-03T11:25:50.769Z,67.16
2024-01-03T11:28:39.489Z,67.54
2024-01-03T11:32:00.419Z,69.23
2024-01-03T11:34:46.555Z,68.77
2024-01-03T11:37:48.797Z,68.71
2024-01-03T11:40:28.547Z,67.97
2024-01-03T11:43:08.541Z,55.73
2024-01-03T11:45:48.250Z,49.58
2024-01-03T11:48:34.034Z,50.98
2024-01-03T11:51:28.762Z,52.76
2024-01-03T11:54:11.065Z,66.59
2024-01-03T11:56:50.403Z,70.52
2024-01-03T11:59:29.765Z,70.47
2024-01-03T12:02:09.543Z,69.43
2024-01-03T12:04:53.896Z,68.07
2024-01-03T12:07:34.293Z,68.94
2024-01-03T12:10:16.752Z,68.95
2024-01-03T12:12:58.385Z,69.31
2024-01-03T12:15:48.742Z,69.35
2024-01-03T12:18:31.733Z,68.53
2024-01-03T12:21:23.350Z,68.95
2024-01-03T12:24:03.411Z,68.25
2024-01-03T12:26:42.943Z,63.50
2024-01-03T12:29:22.413Z,66.59
2024-01-03T12:32:01.943Z,68.99
2024-01-03T12:34:41.303Z,74.17
2024-01-03T12:37:25.839Z,72.00
2024-01-03T12:40:05.394Z,73.29
2024-01-03T12:42:44.756Z,64.80
2024-01-03T12:45:24.521Z,62.41
2024-01-03T12:48:03.960Z,65.16
2024-01-03T12:50:44.476Z,66.20
2024-01-03T12:53:28.945Z,64.45
2024-01-03T12:56:08.225Z,63.69
2024-01-03T12:58:47.488Z,66.45
2024-01-03T13:01:26.956Z,67.26
2024-01-03T13:04:06.513Z,68.30
2024-01-03T13:06:47.382Z,67.02
2024-01-03T13:09:31.834Z,67.23
2024-01-03T13:12:12.160Z,69.03
2024-01-03T13:14:51.520Z,67.06
2024-01-03T13:17:31.060Z,67.37
2024-01-03T13:20:11.108Z,69.21
2024-01-03T13:22:50.598Z,69.92
2024-01-03T13:25:34.973Z,69.79
2024-01-03T13:28:14.427Z,69.01
2024-01-03T13:30:53.872Z,69.60
2024-01-03T13:33:33.603Z,76.36
2024-01-03T13:36:14.483Z,78.81
2024-01-03T13:38:53.916Z,80.21
2024-01-03T13:41:38.336Z,81.24
2024-01-03T13:44:17.722Z,82.70
2024-01-03T13:46:57.054Z,82.08
2024-01-03T13:49:36.674Z,82.94
2024-01-03T13:52:16.651Z,83.99
2024-01-03T13:54:56.062Z,87.03
2024-01-03T13:57:40.417Z,86.91
2024-01-03T14:00:21.784Z,88.29
2024-01-03T14:03:01.613Z,88.53
2024-01-03T14:05:41.220Z,88.13
2024-01-03T14:08:20.666Z,87.73
2024-01-03T14:10:59.944Z,87.19
2024-01-03T14:13:44.401Z,87.13
2024-01-03T14:16:23.961Z,85.28
2024-01-03T14:19:03.551Z,87.35
2024-01-03T14:21:52.282Z,87.56
2024-01-03T14:24:31.825Z,86.76
2024-01-03T14:27:11.551Z,86.86
2024-01-03T14:29:56.179Z,87.44
2024-01-03T14:32:35.635Z,88.18
2024-01-03T14:35:17.970Z,89.74
2024-01-03T14:37:57.934Z,90.46
2024-01-03T14:40:38.065Z,89.76
2024-01-03T14:43:33.716Z,90.32
2024-01-03T14:46:19.466Z,90.41
2024-01-03T14:49:00.004Z,90.78
2024-01-03T14:51:39.597Z,90.20
2024-01-03T14:54:20.171Z,89.97
2024-01-03T14:56:59.684Z,89.45
2024-01-03T14:59:40.909Z,90.45
2024-01-03T15:02:25.982Z,90.72
2024-01-03T15:05:06.081Z,89.27
2024-01-03T15:07:45.778Z,87.04
2024-01-03T15:10:26.349Z,87.19
2024-01-03T15:13:05.667Z,89.64
2024-01-03T15:15:48.750Z,89.33
2024-01-03T15:18:33.334Z,89.10
2024-01-03T15:21:13.299Z,90.35
2024-01-03T15:23:53.037Z,91.82
2024-01-03T15:26:32.392Z,90.36
2024-01-03T15:29:11.749Z,90.08
2024-01-03T15:31:51.270Z,89.91
2024-01-03T15:34:41.338Z,91.04
2024-01-03T15:37:21.708Z,90.29
2024-01-03T15:40:01.589Z,91.26
2024-01-03T15:42:40.886Z,91.07
2024-01-03T15:45:20.282Z,89.63
2024-01-03T15:47:59.741Z,90.12
2024-01-03T15:50:44.344Z,90.73
2024-01-03T15:53:23.700Z,91.18
2024-01-03T15:56:03.166Z,91.00
2024-01-03T15:58:42.903Z,91.23
2024-01-03T16:01:22.340Z,91.81
2024-01-03T16:04:01.748Z,92.33
2024-01-03T16:06:46.598Z,91.19
2024-01-03T16:09:25.948Z,92.55
2024-01-03T16:12:05.355Z,91.70
2024-01-03T16:14:46.200Z,92.22
2024-01-03T16:17:25.805Z,91.39
2024-01-03T16:20:05.298Z,89.60
2024-01-03T16:22:49.692Z,89.03
2024-01-03T16:25:29.033Z,86.56
2024-01-03T16:28:10.234Z,86.00
2024-01-03T16:30:49.620Z,84.60
2024-01-03T16:33:29.183Z,85.05
2024-01-03T16:36:08.749Z,84.91
2024-01-03T16:38:55.186Z,84.36
2024-01-03T16:41:34.560Z,83.70
2024-01-03T16:44:13.887Z,85.37
2024-01-03T16:46:54.221Z,87.14
2024-01-03T16:49:34.235Z,90.06
2024-01-03T16:52:13.793Z,91.29
2024-01-03T16:54:59.774Z,91.86
2024-01-03T16:57:42.062Z,93.11
2024-01-03T17:00:22.898Z,93.17
2024-01-03T17:03:04.120Z,92.68
2024-01-03T17:05:43.672Z,92.23
2024-01-03T17:08:22.935Z,91.54
2024-01-03T17:11:10.596Z,91.05
2024-01-03T17:13:49.910Z,90.89
2024-01-03T17:16:29.429Z,91.73
2024-01-03T17:19:08.950Z,91.64
2024-01-03T17:21:48.490Z,91.21
2024-01-03T17:24:29.888Z,91.03
2024-01-03T17:27:14.285Z,92.21
2024-01-03T17:29:53.660Z,91.78
2024-01-03T17:32:33.122Z,92.33
2024-01-03T17:35:13.911Z,93.51
2024-01-03T17:37:58.539Z,92.54
2024-01-03T17:40:37.972Z,92.35
2024-01-03T17:43:22.326Z,92.45
2024-01-03T17:46:01.650Z,91.19
2024-01-03T17:48:41.973Z,89.60
2024-01-03T17:51:22.438Z,86.91
2024-01-03T17:54:02.114Z,85.06
2024-01-03T17:56:41.494Z,84.19
2024-01-03T17:59:25.928Z,84.17
2024-01-03T18:02:05.472Z,84.61
2024-01-03T18:04:44.755Z,85.35
2024-01-03T18:07:24.059Z,86.72
2024-01-03T18:10:05.298Z,87.24
2024-01-03T18:12:44.645Z,86.70
2024-01-03T18:15:29.041Z,85.90
2024-01-03T18:18:09.256Z,87.05
2024-01-03T18:20:49.390Z,86.42
2024-01-03T18:23:28.710Z,86.50
2024-01-03T18:26:08.016Z,86.02
2024-01-03T18:28:47.355Z,84.48
2024-01-03T18:31:32.288Z,83.08
2024-01-03T18:34:12.212Z,83.51
2024-01-03T18:36:52.558Z,82.52
2024-01-03T18:39:31.842Z,83.28
2024-01-03T18:42:11.873Z,84.45
2024-01-03T18:44:51.394Z,84.87
2024-01-03T18:47:35.972Z,82.46
2024-01-03T18:50:15.951Z,82.75
2024-01-03T18:52:55.617Z,82.31
2024-01-03T18:55:34.894Z,83.18
2024-01-03T18:58:14.888Z,83.32
2024-01-03T19:00:57.730Z,81.45
2024-01-03T19:03:42.881Z,79.66
2024-01-03T19:06:22.179Z,79.49
2024-01-03T19:09:01.549Z,79.50
2024-01-03T19:11:40.840Z,80.18
2024-01-03T19:14:20.261Z,79.23
2024-01-03T19:16:59.828Z,80.25
2024-01-03T19:19:44.428Z,81.00
2024-01-03T19:22:23.801Z,80.39
2024-01-03T19:25:03.080Z,80.51
2024-01-03T19:27:42.366Z,81.30
2024-01-03T19:30:22.701Z,83.59
2024-01-03T19:33:02.158Z,85.96
2024-01-03T19:35:46.712Z,87.15
2024-01-03T19:38:27.443Z,86.35
2024-01-03T19:41:06.783Z,86.68
2024-01-03T19:43:46.077Z,85.28
2024-01-03T19:46:26.243Z,85.68
2024-01-03T19:49:05.607Z,85.93
2024-01-03T19:51:50.037Z,87.91
2024-01-03T19:54:29.628Z,87.57
2024-01-03T19:57:10.149Z,88.29
2024-01-03T19:59:49.641Z,87.26
2024-01-03T20:02:29.326Z,87.18
2024-01-03T20:05:09.253Z,86.19
2024-01-03T20:07:53.664Z,86.99
2024-01-03T20:10:32.952Z,83.57
2024-01-03T20:13:12.704Z,84.91
2024-01-03T20:15:52.408Z,84.75
2024-01-03T20:18:31.873Z,85.10
2024-01-03T20:21:11.798Z,84.13
2024-01-03T20:23:56.239Z,84.66
2024-01-03T20:26:35.644Z,84.31
2024-01-03T20:29:15.345Z,83.34
2024-01-03T20:31:55.131Z,76.23
2024-01-03T20:34:34.491Z,80.17
2024-01-03T20:37:13.988Z,79.82
2024-01-03T20:39:58.368Z,79.15
2024-01-03T20:42:37.733Z,79.69
2024-01-03T20:45:17.662Z,77.88
2024-01-03T20:47:57.087Z,77.14
2024-01-03T20:50:38.170Z,78.30
2024-01-03T20:53:19.604Z,79.24
2024-01-03T20:56:03.955Z,79.46
2024-01-03T20:58:46.112Z,79.23
2024-01-03T21:01:25.561Z,79.17
2024-01-03T21:04:05.756Z,79.74
2024-01-03T21:06:45.478Z,80.12
2024-01-03T21:09:25.276Z,80.14
2024-01-03T21:12:09.641Z,80.71
2024-01-03T21:14:48.994Z,80.62
2024-01-03T21:17:29.509Z,79.98
2024-01-03T21:20:11.973Z,80.35
2024-01-03T21:22:51.279Z,80.55
2024-01-03T21:25:30.728Z,80.83
2024-01-03T21:28:16.596Z,80.67
2024-01-03T21:30:55.894Z,81.50
2024-01-03T21:33:35.430Z,81.91
2024-01-03T21:36:16.539Z,81.74
2024-01-03T21:38:55.890Z,82.63
2024-01-03T21:41:35.185Z,84.05
2024-01-03T21:44:19.556Z,82.44
2024-01-03T21:46:58.846Z,84.69
2024-01-03T21:49:38.265Z,84.14
2024-01-03T21:52:17.519Z,84.70
2024-01-03T21:54:56.815Z,85.77
2024-01-03T21:57:38.475Z,88.10
2024-01-03T22:00:27.243Z,89.60
2024-01-03T22:03:06.645Z,89.58
2024-01-03T22:05:46.107Z,90.56
2024-01-03T22:08:26.971Z,90.72
2024-01-03T22:11:06.879Z,91.86
2024-01-03T22:13:46.172Z,89.39
2024-01-03T22:16:30.529Z,91.40
2024-01-03T22:19:11.654Z,91.64
2024-01-03T22:21:51.036Z,92.28
2024-01-03T22:24:30.320Z,92.93
2024-01-03T22:27:09.745Z,92.41
2024-01-03T22:29:49.760Z,92.26
2024-01-03T22:32:34.423Z,91.01
2024-01-03T22:35:14.164Z,91.65
2024-01-03T22:37:53.486Z,92.04
2024-01-03T22:40:32.758Z,92.29
2024-01-03T22:43:12.342Z,92.63
2024-01-03T22:45:51.698Z,92.46
2024-01-03T22:48:36.180Z,91.95
2024-01-03T22:51:15.757Z,91.36
2024-01-03T22:53:55.124Z,89.40
2024-01-03T22:56:34.486Z,85.16
2024-01-03T22:59:13.923Z,85.54
2024-01-03T23:01:53.262Z,85.09
2024-01-03T23:04:37.838Z,86.16
2024-01-03T23:07:17.670Z,85.06
2024-01-03T23:09:57.094Z,84.49
2024-01-03T23:12:36.527Z,85.74
2024-01-03T23:15:16.664Z,86.33
2024-01-03T23:17:56.473Z,86.23
2024-01-03T23:20:41.095Z,85.50
2024-01-03T23:23:22.905Z,84.63
2024-01-03T23:26:04.002Z,84.52
2024-01-03T23:28:43.518Z,87.81
2024-01-03T23:31:23.382Z,88.20
2024-01-03T23:34:02.833Z,87.31
2024-01-03T23:36:47.285Z,86.44
2024-01-03T23:39:26.593Z,85.76
2024-01-03T23:42:05.907Z,86.26
2024-01-03T23:44:45.870Z,83.38
2024-01-03T23:47:25.230Z,83.74
2024-01-03T23:50:04.830Z,87.27
2024-01-03T23:52:49.223Z,87.86
2024-01-03T23:55:29.127Z,89.24
2024-01-03T23:58:10.938Z,89.65
